Terminal Aerodrome Forecast
Issued by NWS Wichita, KS

Home | Current Version | Previous Version | Text Only | Print | Product List | Glossary On
Versions: 1 2 3 4 5 6 7 8 9 10 11 12 13 14 15 16 17 18 19 20
000
FTUS43 KICT 231727
TAFICT
TAF
KICT 231727Z 2318/2418 33016G22KT P6SM OVC030
     FM232200 33017G24KT 6SM -RASN SCT015 OVC025
      TEMPO 2323/2403 4SM -SN OVC015
     FM240400 34018G25KT P6SM OVC015=

USA.gov is the U.S. government's official web portal to all federal, state and local government web resources and services.